createdAt,value
2019-03-29T00:00:58.263Z,88.20
2019-03-29T00:02:51.398Z,88.10
2019-03-29T00:04:43.873Z,88.70
2019-03-29T00:06:36.397Z,88.70
2019-03-29T00:08:29.548Z,88.90
2019-03-29T00:10:22.080Z,88.90
2019-03-29T00:12:14.515Z,89.10
2019-03-29T00:14:06.889Z,89.40
2019-03-29T00:15:59.990Z,89.60
2019-03-29T00:17:52.540Z,89.60
2019-03-29T00:19:44.777Z,89.50
2019-03-29T00:21:37.264Z,89.70
2019-03-29T00:23:29.448Z,90.00
2019-03-29T00:25:21.737Z,90.40
2019-03-29T00:27:13.980Z,90.60
2019-03-29T00:29:06.528Z,90.80
2019-03-29T00:30:58.691Z,90.80
2019-03-29T00:32:50.780Z,90.90
2019-03-29T00:34:42.839Z,90.90
2019-03-29T00:36:35.133Z,90.80
2019-03-29T00:38:27.358Z,90.80
2019-03-29T00:40:19.631Z,91.00
2019-03-29T00:42:11.766Z,91.10
2019-03-29T00:44:03.675Z,91.10
2019-03-29T00:45:55.896Z,91.10
2019-03-29T00:47:47.920Z,91.30
2019-03-29T00:49:40.301Z,91.30
2019-03-29T00:51:32.888Z,91.40
2019-03-29T00:53:25.059Z,91.30
2019-03-29T00:55:17.140Z,91.60
2019-03-29T00:57:09.504Z,91.30
2019-03-29T00:59:01.763Z,91.50
2019-03-29T01:00:53.760Z,91.80
2019-03-29T01:02:45.955Z,92.00
2019-03-29T01:04:39.683Z,92.10
2019-03-29T01:06:32.003Z,92.00
2019-03-29T01:08:24.149Z,92.00
2019-03-29T01:10:16.244Z,92.20
2019-03-29T01:12:08.250Z,92.20
2019-03-29T01:14:00.376Z,92.30
2019-03-29T01:15:52.591Z,92.50
2019-03-29T01:17:45.763Z,92.50
2019-03-29T01:19:38.402Z,92.60
2019-03-29T01:21:30.559Z,92.70
2019-03-29T01:23:22.570Z,92.50
2019-03-29T01:25:15.939Z,92.50
2019-03-29T01:27:08.212Z,92.80
2019-03-29T01:29:00.451Z,92.80
2019-03-29T01:30:52.675Z,92.80
2019-03-29T01:32:44.875Z,92.80
2019-03-29T01:34:36.730Z,92.90
2019-03-29T01:36:29.424Z,92.90
2019-03-29T01:38:24.146Z,92.80
2019-03-29T01:40:15.911Z,93.10
2019-03-29T01:42:09.366Z,93.40
2019-03-29T01:44:02.015Z,93.40
2019-03-29T01:45:54.899Z,93.80
2019-03-29T01:47:47.129Z,93.40
2019-03-29T01:49:39.540Z,93.40
2019-03-29T01:51:31.828Z,93.80
2019-03-29T01:53:24.153Z,93.70
2019-03-29T01:55:16.280Z,93.90
2019-03-29T01:57:08.262Z,93.90
2019-03-29T01:59:00.146Z,93.80
2019-03-29T02:00:52.011Z,93.90
2019-03-29T02:02:44.104Z,94.00
2019-03-29T02:04:36.468Z,94.50
2019-03-29T02:06:28.647Z,94.10
2019-03-29T02:08:34.850Z,94.40
2019-03-29T02:10:14.807Z,94.50
2019-03-29T02:12:08.475Z,94.50
2019-03-29T02:14:00.630Z,94.40
2019-03-29T02:15:53.103Z,94.60
2019-03-29T02:17:45.175Z,94.50
2019-03-29T02:19:37.396Z,94.50
2019-03-29T02:21:29.586Z,94.50
2019-03-29T02:23:22.152Z,94.60
2019-03-29T02:25:15.278Z,94.50
2019-03-29T02:27:07.729Z,94.60
2019-03-29T02:28:59.658Z,94.60
2019-03-29T02:30:51.762Z,94.60
2019-03-29T02:32:44.280Z,94.50
2019-03-29T02:34:36.537Z,94.50
2019-03-29T02:36:28.763Z,94.70
2019-03-29T02:38:21.222Z,94.70
2019-03-29T02:40:14.014Z,94.70
2019-03-29T02:42:06.476Z,94.60
2019-03-29T02:43:58.723Z,94.90
2019-03-29T02:45:50.622Z,94.90
2019-03-29T02:47:42.516Z,94.90
2019-03-29T02:49:34.607Z,94.90
2019-03-29T02:51:27.060Z,95.20
2019-03-29T02:53:19.037Z,95.10
2019-03-29T02:55:11.461Z,94.70
2019-03-29T02:57:03.710Z,95.10
2019-03-29T02:58:56.179Z,95.20
2019-03-29T03:00:48.375Z,95.10
2019-03-29T03:02:41.044Z,95.80
2019-03-29T03:04:33.034Z,95.30
2019-03-29T03:06:25.120Z,95.40
2019-03-29T03:08:17.239Z,95.40
2019-03-29T03:10:11.251Z,95.70
2019-03-29T03:12:03.892Z,95.80
2019-03-29T03:13:56.105Z,96.10
2019-03-29T03:15:48.403Z,95.90
2019-03-29T03:17:40.414Z,95.80
2019-03-29T03:19:32.272Z,95.90
2019-03-29T03:21:24.746Z,95.80
2019-03-29T03:23:16.958Z,95.80
2019-03-29T03:25:09.336Z,95.80
2019-03-29T03:27:01.474Z,95.70
2019-03-29T03:28:53.502Z,95.60
2019-03-29T03:30:46.169Z,95.70
2019-03-29T03:32:38.506Z,95.90
2019-03-29T03:34:31.056Z,96.10
2019-03-29T03:36:24.180Z,96.00
2019-03-29T03:38:16.117Z,96.10
2019-03-29T03:40:10.389Z,96.00
2019-03-29T03:42:02.555Z,96.20
2019-03-29T03:43:55.027Z,96.00
2019-03-29T03:45:48.468Z,96.20
2019-03-29T03:47:40.952Z,96.30
2019-03-29T03:49:33.541Z,96.20
2019-03-29T03:51:25.941Z,96.40
2019-03-29T03:53:18.473Z,96.30
2019-03-29T03:55:10.659Z,96.20
2019-03-29T03:57:02.860Z,96.60
2019-03-29T03:58:55.469Z,96.60
2019-03-29T04:00:52.021Z,96.60
2019-03-29T04:02:44.115Z,96.50
2019-03-29T04:04:37.956Z,96.30
2019-03-29T04:06:29.933Z,96.50
2019-03-29T04:08:22.189Z,96.20
2019-03-29T04:10:14.641Z,96.40
2019-03-29T04:12:06.992Z,96.60
2019-03-29T04:13:58.885Z,96.60
2019-03-29T04:15:52.435Z,96.60
2019-03-29T04:17:44.628Z,96.70
2019-03-29T04:19:36.536Z,96.70
2019-03-29T04:21:28.693Z,96.60
2019-03-29T04:23:20.553Z,96.60
2019-03-29T04:25:13.024Z,96.80
2019-03-29T04:27:04.948Z,96.90
2019-03-29T04:29:04.941Z,96.70
2019-03-29T04:30:50.743Z,96.40
2019-03-29T04:32:42.555Z,96.50
2019-03-29T04:34:34.617Z,96.70
2019-03-29T04:36:26.824Z,96.80
2019-03-29T04:38:19.062Z,96.90
2019-03-29T04:40:11.471Z,96.70
2019-03-29T04:42:03.404Z,96.80
2019-03-29T04:43:55.265Z,96.80
2019-03-29T04:45:47.981Z,96.70
2019-03-29T04:47:40.389Z,96.70
2019-03-29T04:49:32.951Z,96.80
2019-03-29T04:51:25.088Z,96.90
2019-03-29T04:53:17.332Z,97.20
2019-03-29T04:55:09.576Z,97.40
2019-03-29T04:57:01.892Z,97.30
2019-03-29T04:58:54.020Z,97.10
2019-03-29T05:00:46.236Z,97.00
2019-03-29T05:02:38.267Z,96.90
2019-03-29T05:04:30.156Z,97.00
2019-03-29T05:06:22.675Z,97.00
2019-03-29T05:08:14.830Z,97.10
2019-03-29T05:10:20.584Z,96.90
2019-03-29T05:12:00.873Z,97.10
2019-03-29T05:13:53.475Z,97.00
2019-03-29T05:15:45.733Z,96.80
2019-03-29T05:17:38.219Z,97.00
2019-03-29T05:19:30.604Z,96.90
2019-03-29T05:21:22.655Z,96.90
2019-03-29T05:23:14.736Z,96.80
2019-03-29T05:25:06.906Z,96.70
2019-03-29T05:26:59.348Z,96.70
2019-03-29T05:28:51.568Z,96.40
2019-03-29T05:30:43.481Z,96.20
2019-03-29T05:32:35.582Z,96.20
2019-03-29T05:34:27.921Z,96.40
2019-03-29T05:36:20.170Z,96.40
2019-03-29T05:38:12.365Z,96.40
2019-03-29T05:40:06.096Z,96.30
2019-03-29T05:41:58.377Z,96.40
2019-03-29T05:43:50.549Z,96.70
2019-03-29T05:45:44.073Z,96.70
2019-03-29T05:47:36.613Z,96.70
2019-03-29T05:49:28.458Z,96.90
2019-03-29T05:51:20.617Z,96.80
2019-03-29T05:53:13.112Z,96.80
2019-03-29T05:55:07.171Z,96.80
2019-03-29T05:56:59.277Z,96.90
2019-03-29T05:58:51.406Z,96.50
2019-03-29T06:00:43.537Z,96.40
2019-03-29T06:02:35.654Z,96.20
2019-03-29T06:04:29.441Z,96.00
2019-03-29T06:06:24.328Z,95.90
2019-03-29T06:08:16.802Z,95.90
2019-03-29T06:10:08.956Z,95.80
2019-03-29T06:12:01.719Z,95.80
2019-03-29T06:13:53.900Z,95.80
2019-03-29T06:15:45.811Z,95.90
2019-03-29T06:17:47.907Z,95.90
2019-03-29T06:19:32.586Z,95.90
2019-03-29T06:21:24.524Z,96.20
2019-03-29T06:23:16.695Z,96.00
2019-03-29T06:25:08.903Z,95.90
2019-03-29T06:27:01.007Z,96.00
2019-03-29T06:28:53.458Z,95.60
2019-03-29T06:30:46.520Z,95.50
2019-03-29T06:32:39.040Z,95.60
2019-03-29T06:34:31.174Z,95.80
2019-03-29T06:36:24.021Z,95.60
2019-03-29T06:38:16.161Z,95.70
2019-03-29T06:40:10.018Z,95.50
2019-03-29T06:42:02.815Z,95.20
2019-03-29T06:43:55.083Z,94.60
2019-03-29T06:45:48.500Z,95.00
2019-03-29T06:47:40.965Z,95.10
2019-03-29T06:49:33.625Z,95.10
2019-03-29T06:51:25.851Z,95.30
2019-03-29T06:53:18.097Z,95.30
2019-03-29T06:55:10.519Z,95.60
2019-03-29T06:57:03.365Z,95.40
2019-03-29T06:58:55.603Z,95.60
2019-03-29T07:00:47.456Z,95.20
2019-03-29T07:02:39.756Z,94.90
2019-03-29T07:04:31.958Z,94.70
2019-03-29T07:06:24.453Z,94.60
2019-03-29T07:08:16.783Z,94.60
2019-03-29T07:10:08.958Z,94.70
2019-03-29T07:12:01.443Z,94.70
2019-03-29T07:13:57.788Z,94.80
2019-03-29T07:15:47.772Z,94.70
2019-03-29T07:17:40.107Z,94.00
2019-03-29T07:19:32.194Z,94.00
2019-03-29T07:21:24.576Z,93.70
2019-03-29T07:23:16.650Z,93.50
2019-03-29T07:25:09.284Z,93.20
2019-03-29T07:27:02.726Z,92.40
2019-03-29T07:28:55.365Z,92.40
2019-03-29T07:30:47.799Z,92.10
2019-03-29T07:32:39.895Z,92.10
2019-03-29T07:34:32.299Z,92.20
2019-03-29T07:36:24.679Z,91.80
2019-03-29T07:38:16.721Z,91.70
2019-03-29T07:40:09.393Z,91.80
2019-03-29T07:42:01.792Z,91.80
2019-03-29T07:43:54.412Z,91.50
2019-03-29T07:45:46.569Z,91.90
2019-03-29T07:47:39.083Z,91.50
2019-03-29T07:49:32.831Z,91.10
2019-03-29T07:51:26.499Z,91.40
2019-03-29T07:53:18.691Z,91.10
2019-03-29T07:55:11.224Z,91.10
2019-03-29T07:57:03.626Z,91.00
2019-03-29T07:58:55.992Z,90.30
2019-03-29T08:00:48.264Z,90.20
2019-03-29T08:02:40.337Z,90.10
2019-03-29T08:04:32.346Z,89.60
2019-03-29T08:06:25.347Z,89.40
2019-03-29T08:08:24.676Z,88.80
2019-03-29T08:10:24.148Z,88.90
2019-03-29T08:12:05.542Z,87.70
2019-03-29T08:13:58.091Z,86.30
2019-03-29T08:15:50.367Z,85.60
2019-03-29T08:17:42.852Z,83.70
2019-03-29T08:19:37.247Z,85.30
2019-03-29T08:21:29.452Z,84.00
2019-03-29T08:23:21.969Z,83.40
2019-03-29T08:25:14.482Z,84.20
2019-03-29T08:27:06.789Z,85.00
2019-03-29T08:28:59.166Z,85.80
2019-03-29T08:30:51.436Z,85.60
2019-03-29T08:32:43.649Z,84.00
2019-03-29T08:34:36.174Z,83.00
2019-03-29T08:36:28.888Z,81.70
2019-03-29T08:38:21.485Z,81.40
2019-03-29T08:40:13.967Z,80.90
2019-03-29T08:42:05.992Z,80.30
2019-03-29T08:43:58.524Z,77.90
2019-03-29T08:45:50.376Z,77.00
2019-03-29T08:47:42.689Z,76.50
2019-03-29T08:49:35.248Z,75.60
2019-03-29T08:51:27.791Z,75.40
2019-03-29T08:53:20.040Z,75.30
2019-03-29T08:55:12.089Z,74.90
2019-03-29T08:57:04.612Z,73.60
2019-03-29T08:58:56.803Z,73.40
2019-03-29T09:00:48.979Z,72.00
2019-03-29T09:02:41.505Z,71.20
2019-03-29T09:04:33.987Z,70.30
2019-03-29T09:06:26.360Z,70.10
2019-03-29T09:08:18.688Z,72.00
2019-03-29T09:10:24.170Z,72.40
2019-03-29T09:12:16.645Z,71.10
2019-03-29T09:14:08.869Z,69.40
2019-03-29T09:16:01.512Z,68.90
2019-03-29T09:17:54.914Z,67.80
2019-03-29T09:19:47.233Z,66.20
2019-03-29T09:21:39.575Z,66.80
2019-03-29T09:23:32.020Z,67.40
2019-03-29T09:25:23.824Z,67.20
2019-03-29T09:27:16.236Z,68.40
2019-03-29T09:29:08.480Z,68.50
2019-03-29T09:31:00.532Z,68.30
2019-03-29T09:32:52.418Z,66.30
2019-03-29T09:34:44.605Z,64.80
2019-03-29T09:36:37.003Z,65.30
2019-03-29T09:38:29.541Z,64.30
2019-03-29T09:40:21.799Z,64.70
2019-03-29T09:42:27.720Z,64.30
2019-03-29T09:44:07.369Z,64.40
2019-03-29T09:46:03.017Z,65.10
2019-03-29T09:47:55.957Z,64.70
2019-03-29T09:49:47.500Z,62.90
2019-03-29T09:51:39.679Z,62.70
2019-03-29T09:53:31.756Z,62.80
2019-03-29T09:55:24.392Z,64.20
2019-03-29T09:57:16.765Z,63.70
2019-03-29T09:59:08.988Z,63.90
2019-03-29T10:01:01.235Z,63.70
2019-03-29T10:02:53.515Z,62.20
2019-03-29T10:04:46.048Z,61.30
2019-03-29T10:06:38.573Z,64.00
2019-03-29T10:08:31.228Z,64.20
2019-03-29T10:10:23.428Z,63.80
2019-03-29T10:12:15.636Z,62.60
2019-03-29T10:14:07.642Z,62.20
2019-03-29T10:16:00.024Z,61.20
2019-03-29T10:17:52.249Z,60.40
2019-03-29T10:19:44.410Z,60.80
2019-03-29T10:21:36.738Z,59.30
2019-03-29T10:23:28.936Z,59.00
2019-03-29T10:25:21.781Z,58.90
2019-03-29T10:27:14.445Z,56.30
2019-03-29T10:29:06.827Z,57.40
2019-03-29T10:30:58.984Z,56.80
2019-03-29T10:32:51.149Z,57.00
2019-03-29T10:34:43.430Z,57.50
2019-03-29T10:36:35.927Z,58.50
2019-03-29T10:38:28.108Z,56.50
2019-03-29T10:40:21.758Z,56.00
2019-03-29T10:42:13.947Z,55.40
2019-03-29T10:44:05.995Z,53.80
2019-03-29T10:45:57.958Z,53.50
2019-03-29T10:47:49.839Z,53.70
2019-03-29T10:49:41.985Z,53.40
2019-03-29T10:51:34.092Z,52.90
2019-03-29T10:53:28.752Z,54.00
2019-03-29T10:55:21.412Z,54.60
2019-03-29T10:57:13.827Z,54.60
2019-03-29T10:59:05.797Z,55.30
2019-03-29T11:00:58.192Z,53.60
2019-03-29T11:02:50.270Z,54.20
2019-03-29T11:04:42.576Z,55.20
2019-03-29T11:06:35.884Z,54.90
2019-03-29T11:08:28.056Z,54.00
2019-03-29T11:10:30.406Z,53.50
2019-03-29T11:12:24.157Z,52.80
2019-03-29T11:14:16.476Z,53.30
2019-03-29T11:16:09.233Z,51.30
2019-03-29T11:18:01.413Z,52.90
2019-03-29T11:19:53.399Z,54.10
2019-03-29T11:21:45.715Z,54.00
2019-03-29T11:23:38.185Z,54.90
2019-03-29T11:25:30.313Z,55.00
2019-03-29T11:27:22.712Z,54.60
2019-03-29T11:29:15.396Z,55.20
2019-03-29T11:31:07.598Z,55.20
2019-03-29T11:32:59.712Z,54.70
2019-03-29T11:34:51.814Z,54.00
2019-03-29T11:36:44.138Z,52.80
2019-03-29T11:38:36.617Z,52.60
2019-03-29T11:40:28.951Z,51.90
2019-03-29T11:42:21.195Z,51.20
2019-03-29T11:44:13.433Z,52.10
2019-03-29T11:46:06.894Z,53.70
2019-03-29T11:48:08.549Z,53.40
2019-03-29T11:49:53.043Z,53.50
2019-03-29T11:51:45.333Z,53.80
2019-03-29T11:53:37.733Z,53.40
2019-03-29T11:55:29.751Z,53.90
2019-03-29T11:57:22.382Z,53.70
2019-03-29T11:59:14.534Z,53.00
2019-03-29T12:01:06.706Z,53.60
2019-03-29T12:02:59.276Z,52.80
2019-03-29T12:04:51.560Z,53.30
2019-03-29T12:06:43.759Z,51.00
2019-03-29T12:08:36.078Z,51.80
2019-03-29T12:10:29.580Z,53.30
2019-03-29T12:12:22.138Z,54.50
2019-03-29T12:14:14.635Z,54.90
2019-03-29T12:16:07.310Z,53.90
2019-03-29T12:17:59.431Z,53.00
2019-03-29T12:19:51.563Z,50.30
2019-03-29T12:21:45.296Z,49.10
2019-03-29T12:23:37.285Z,48.40
2019-03-29T12:25:29.613Z,48.10
2019-03-29T12:27:22.009Z,47.50
2019-03-29T12:29:14.125Z,46.30
2019-03-29T12:31:06.776Z,44.30
2019-03-29T12:32:59.216Z,44.70
2019-03-29T12:34:51.276Z,43.30
2019-03-29T12:36:46.048Z,44.00
2019-03-29T12:38:37.518Z,45.60
2019-03-29T12:40:30.350Z,46.30
2019-03-29T12:42:23.868Z,46.50
2019-03-29T12:44:16.004Z,46.80
2019-03-29T12:46:08.123Z,46.10
2019-03-29T12:48:00.016Z,47.10
2019-03-29T12:49:52.348Z,46.20
2019-03-29T12:51:46.551Z,44.40
2019-03-29T12:53:38.509Z,43.50
2019-03-29T12:55:31.166Z,44.30
2019-03-29T12:57:23.629Z,44.80
2019-03-29T12:59:15.704Z,42.80
2019-03-29T13:01:08.058Z,40.10
2019-03-29T13:02:59.997Z,40.10
2019-03-29T13:04:51.879Z,40.80
2019-03-29T13:06:43.707Z,41.90
2019-03-29T13:08:36.091Z,41.50
2019-03-29T13:10:28.938Z,39.60
2019-03-29T13:12:21.126Z,39.40
2019-03-29T13:14:13.577Z,39.30
2019-03-29T13:16:05.829Z,39.60
2019-03-29T13:17:58.367Z,40.80
2019-03-29T13:19:50.913Z,40.90
2019-03-29T13:21:43.222Z,39.20
2019-03-29T13:23:35.400Z,40.70
2019-03-29T13:25:27.986Z,42.30
2019-03-29T13:27:20.224Z,40.20
2019-03-29T13:29:12.897Z,39.70
2019-03-29T13:31:05.046Z,37.50
2019-03-29T13:32:57.202Z,37.80
2019-03-29T13:34:51.394Z,37.40
2019-03-29T13:36:43.660Z,39.10
2019-03-29T13:38:35.828Z,40.60
2019-03-29T13:40:27.803Z,41.20
2019-03-29T13:42:20.335Z,42.70
2019-03-29T13:44:23.187Z,44.60
2019-03-29T13:46:06.553Z,44.50
2019-03-29T13:47:58.795Z,43.70
2019-03-29T13:49:51.070Z,43.20
2019-03-29T13:51:43.173Z,43.50
2019-03-29T13:53:35.665Z,41.90
2019-03-29T13:55:28.395Z,41.20
2019-03-29T13:57:20.477Z,41.70
2019-03-29T13:59:12.729Z,43.70
2019-03-29T14:01:05.268Z,43.40
2019-03-29T14:02:57.215Z,44.50
2019-03-29T14:04:49.372Z,44.70
2019-03-29T14:06:41.794Z,44.90
2019-03-29T14:08:34.187Z,45.40
2019-03-29T14:10:26.476Z,42.90
2019-03-29T14:12:18.557Z,41.90
2019-03-29T14:14:13.759Z,42.30
2019-03-29T14:16:06.473Z,41.80
2019-03-29T14:17:58.768Z,39.40
2019-03-29T14:19:52.118Z,38.80
2019-03-29T14:21:44.356Z,39.30
2019-03-29T14:23:36.732Z,39.70
2019-03-29T14:25:29.297Z,38.60
2019-03-29T14:27:21.569Z,37.60
2019-03-29T14:29:13.711Z,37.70
2019-03-29T14:31:05.889Z,36.30
2019-03-29T14:32:57.859Z,36.90
2019-03-29T14:34:50.314Z,37.60
2019-03-29T14:36:45.841Z,37.00
2019-03-29T14:38:38.334Z,35.50
2019-03-29T14:40:30.536Z,34.80
2019-03-29T14:42:23.223Z,35.50
2019-03-29T14:44:15.890Z,37.80
2019-03-29T14:46:08.172Z,37.20
2019-03-29T14:48:00.583Z,37.20
2019-03-29T14:49:52.960Z,38.10
2019-03-29T14:51:45.385Z,38.20
2019-03-29T14:53:38.640Z,38.40
2019-03-29T14:55:30.589Z,38.00
2019-03-29T14:57:22.711Z,36.50
2019-03-29T14:59:15.200Z,35.80
2019-03-29T15:01:08.758Z,38.10
2019-03-29T15:03:01.034Z,41.10
2019-03-29T15:04:53.436Z,41.30
2019-03-29T15:06:45.357Z,41.60
2019-03-29T15:08:37.530Z,41.50
2019-03-29T15:10:30.661Z,42.20
2019-03-29T15:12:23.083Z,42.60
2019-03-29T15:14:15.324Z,42.70
2019-03-29T15:16:07.448Z,42.80
2019-03-29T15:17:59.605Z,43.20
2019-03-29T15:19:52.055Z,43.10
2019-03-29T15:21:44.072Z,43.60
2019-03-29T15:23:36.608Z,44.10
2019-03-29T15:25:28.493Z,43.60
2019-03-29T15:27:20.686Z,44.90
2019-03-29T15:29:12.967Z,43.90
2019-03-29T15:31:05.368Z,44.90
2019-03-29T15:32:57.760Z,45.20
2019-03-29T15:34:49.969Z,45.00
2019-03-29T15:36:42.186Z,46.70
2019-03-29T15:38:34.637Z,47.10
2019-03-29T15:40:26.792Z,47.30
2019-03-29T15:42:20.524Z,47.50
2019-03-29T15:44:13.369Z,47.60
2019-03-29T15:46:05.348Z,46.60
2019-03-29T15:47:57.681Z,45.10
2019-03-29T15:49:56.212Z,43.50
2019-03-29T15:51:44.325Z,43.00
2019-03-29T15:53:36.185Z,43.90
2019-03-29T15:55:28.190Z,44.20
2019-03-29T15:57:20.763Z,44.70
2019-03-29T15:59:14.412Z,45.70
2019-03-29T16:01:06.618Z,46.00
2019-03-29T16:02:58.902Z,47.40
2019-03-29T16:04:51.742Z,48.00
2019-03-29T16:06:44.089Z,48.40
2019-03-29T16:08:36.504Z,48.90
2019-03-29T16:10:30.230Z,48.70
2019-03-29T16:12:22.383Z,47.50
2019-03-29T16:14:14.559Z,47.80
2019-03-29T16:16:06.960Z,47.20
2019-03-29T16:17:59.580Z,47.30
2019-03-29T16:19:51.795Z,47.40
2019-03-29T16:21:43.997Z,46.90
2019-03-29T16:23:36.122Z,47.90
2019-03-29T16:25:28.715Z,48.40
2019-03-29T16:27:20.967Z,49.40
2019-03-29T16:29:12.941Z,49.50
2019-03-29T16:31:06.544Z,49.40
2019-03-29T16:32:58.487Z,48.50
2019-03-29T16:34:44.272Z,48.40
2019-03-29T16:36:21.387Z,47.60
2019-03-29T16:37:57.548Z,47.70
2019-03-29T16:39:49.528Z,47.80
2019-03-29T16:41:41.745Z,48.80
2019-03-29T16:43:33.881Z,49.50
2019-03-29T16:45:25.972Z,50.50
2019-03-29T16:47:18.207Z,51.00
2019-03-29T16:49:10.558Z,51.50
2019-03-29T16:51:02.406Z,51.90
2019-03-29T16:52:36.205Z,52.30
2019-03-29T16:54:11.885Z,52.70
2019-03-29T16:55:45.466Z,52.80
2019-03-29T16:57:37.887Z,53.40
2019-03-29T16:59:11.763Z,53.50
2019-03-29T17:00:45.362Z,53.70
2019-03-29T17:02:19.452Z,53.50
2019-03-29T17:03:53.156Z,53.50
2019-03-29T17:05:26.803Z,54.10
2019-03-29T17:07:19.242Z,54.30
2019-03-29T17:09:02.095Z,53.70
2019-03-29T17:10:36.395Z,53.50
2019-03-29T17:12:10.264Z,53.90
2019-03-29T17:13:43.985Z,54.70
2019-03-29T17:15:17.653Z,54.20
2019-03-29T17:16:52.927Z,54.50
2019-03-29T17:18:29.609Z,55.10
2019-03-29T17:20:01.832Z,55.10
2019-03-29T17:21:35.457Z,55.60
2019-03-29T17:23:09.089Z,55.40
2019-03-29T17:24:56.018Z,55.40
2019-03-29T17:26:18.013Z,56.10
2019-03-29T17:27:52.278Z,55.70
2019-03-29T17:29:26.193Z,55.50
2019-03-29T17:31:01.560Z,56.10
2019-03-29T17:32:35.269Z,55.90
2019-03-29T17:34:08.957Z,56.00
2019-03-29T17:35:42.825Z,56.10
2019-03-29T17:37:16.428Z,56.80
2019-03-29T17:38:50.088Z,56.50
2019-03-29T17:40:23.987Z,56.90
2019-03-29T17:42:15.927Z,56.90
2019-03-29T17:44:08.273Z,56.90
2019-03-29T17:46:00.419Z,57.50
2019-03-29T17:47:34.243Z,57.40
2019-03-29T17:49:07.831Z,57.10
2019-03-29T17:50:41.413Z,57.30
2019-03-29T17:52:16.676Z,57.90
2019-03-29T17:53:50.339Z,57.80
2019-03-29T17:55:23.995Z,58.10
2019-03-29T17:57:16.017Z,57.80
2019-03-29T17:58:49.677Z,58.20
2019-03-29T18:00:27.908Z,58.10
2019-03-29T18:02:09.410Z,58.70
2019-03-29T18:03:36.863Z,58.90
2019-03-29T18:05:10.612Z,58.70
2019-03-29T18:06:46.853Z,59.00
2019-03-29T18:08:19.460Z,59.30
2019-03-29T18:10:11.648Z,59.40
2019-03-29T18:12:03.748Z,59.70
2019-03-29T18:13:55.879Z,61.00
2019-03-29T18:15:47.786Z,59.70
2019-03-29T18:17:39.862Z,59.70
2019-03-29T18:19:32.126Z,59.70
2019-03-29T18:21:24.597Z,59.90
2019-03-29T18:23:16.437Z,60.00
2019-03-29T18:25:08.939Z,60.50
2019-03-29T18:27:01.087Z,60.60
2019-03-29T18:28:53.476Z,60.80
2019-03-29T18:30:45.960Z,61.00
2019-03-29T18:32:38.453Z,61.00
2019-03-29T18:34:12.059Z,61.10
2019-03-29T18:35:45.645Z,61.10
2019-03-29T18:37:20.567Z,61.60
2019-03-29T18:38:54.258Z,61.60
2019-03-29T18:40:27.894Z,61.50
2019-03-29T18:42:01.488Z,61.30
2019-03-29T18:43:38.859Z,61.50
2019-03-29T18:45:30.906Z,61.40
2019-03-29T18:47:23.120Z,61.70
2019-03-29T18:49:15.712Z,61.70
2019-03-29T18:51:07.612Z,61.70
2019-03-29T18:52:59.503Z,61.70
2019-03-29T18:54:51.335Z,61.90
2019-03-29T18:56:43.304Z,62.30
2019-03-29T18:58:35.478Z,62.50
2019-03-29T19:00:34.429Z,62.60
2019-03-29T19:02:26.993Z,62.70
2019-03-29T19:04:19.337Z,62.90
2019-03-29T19:06:11.533Z,63.10
2019-03-29T19:08:04.164Z,63.30
2019-03-29T19:09:57.943Z,63.50
2019-03-29T19:11:50.080Z,63.90
2019-03-29T19:13:43.664Z,63.90
2019-03-29T19:15:35.563Z,64.00
2019-03-29T19:17:28.047Z,64.10
2019-03-29T19:19:19.964Z,64.60
2019-03-29T19:21:11.968Z,64.30
2019-03-29T19:23:04.167Z,64.40
2019-03-29T19:24:56.317Z,64.10
2019-03-29T19:26:48.689Z,64.10
2019-03-29T19:28:41.049Z,64.10
2019-03-29T19:30:33.671Z,64.90
2019-03-29T19:32:26.548Z,64.90
2019-03-29T19:34:19.780Z,65.10
2019-03-29T19:36:12.590Z,64.20
2019-03-29T19:38:04.930Z,64.80
2019-03-29T19:39:57.297Z,64.60
2019-03-29T19:41:49.716Z,64.80
2019-03-29T19:43:42.623Z,64.90
2019-03-29T19:45:35.136Z,65.20
2019-03-29T19:47:27.952Z,65.40
2019-03-29T19:49:20.515Z,65.50
2019-03-29T19:51:13.391Z,65.50
2019-03-29T19:53:05.953Z,65.70
2019-03-29T19:55:01.298Z,65.80
2019-03-29T19:56:53.321Z,66.20
2019-03-29T19:58:46.387Z,66.60
2019-03-29T20:00:40.221Z,67.40
2019-03-29T20:02:33.222Z,67.60
2019-03-29T20:04:26.171Z,67.80
2019-03-29T20:06:19.140Z,68.00
2019-03-29T20:08:12.414Z,68.50
2019-03-29T20:10:07.067Z,68.10
2019-03-29T20:12:00.540Z,67.90
2019-03-29T20:13:54.021Z,67.40
2019-03-29T20:15:47.363Z,67.20
2019-03-29T20:17:42.243Z,67.20
2019-03-29T20:19:35.609Z,67.40
2019-03-29T20:21:28.925Z,67.70
2019-03-29T20:23:22.205Z,68.40
2019-03-29T20:25:15.615Z,69.40
2019-03-29T20:27:09.219Z,69.20
2019-03-29T20:29:02.950Z,68.90
2019-03-29T20:30:56.502Z,68.30
2019-03-29T20:32:49.683Z,68.10
2019-03-29T20:34:44.976Z,68.50
2019-03-29T20:36:38.739Z,68.50
2019-03-29T20:38:32.510Z,68.40
2019-03-29T20:40:26.359Z,68.70
2019-03-29T20:42:19.715Z,68.90
2019-03-29T20:44:13.330Z,69.50
2019-03-29T20:46:07.005Z,70.00
2019-03-29T20:48:01.408Z,70.50
2019-03-29T20:49:55.453Z,71.10
2019-03-29T20:51:49.237Z,70.20
2019-03-29T20:53:43.722Z,70.20
2019-03-29T20:55:37.711Z,70.70
2019-03-29T20:57:31.912Z,71.20
2019-03-29T20:59:25.382Z,71.50
2019-03-29T21:01:19.059Z,71.30
2019-03-29T21:03:12.868Z,71.30
2019-03-29T21:05:06.604Z,71.30
2019-03-29T21:07:00.446Z,71.60
2019-03-29T21:08:53.996Z,72.50
2019-03-29T21:10:55.525Z,72.70
2019-03-29T21:12:42.242Z,72.50
2019-03-29T21:14:36.352Z,71.90
2019-03-29T21:16:29.606Z,71.60
2019-03-29T21:18:22.981Z,72.00
2019-03-29T21:20:15.862Z,71.90
2019-03-29T21:22:08.266Z,71.80
2019-03-29T21:24:01.215Z,72.20
2019-03-29T21:25:54.096Z,73.40
2019-03-29T21:27:46.625Z,73.40
2019-03-29T21:29:39.179Z,73.70
2019-03-29T21:31:31.537Z,73.70
2019-03-29T21:33:25.221Z,74.20
2019-03-29T21:35:17.785Z,74.00
2019-03-29T21:37:09.995Z,73.70
2019-03-29T21:39:02.151Z,75.50
2019-03-29T21:40:56.029Z,75.40
2019-03-29T21:42:48.488Z,76.00
2019-03-29T21:44:40.778Z,76.30
2019-03-29T21:46:34.039Z,76.00
2019-03-29T21:48:28.879Z,76.00
2019-03-29T21:50:20.585Z,76.40
2019-03-29T21:52:12.989Z,76.70
2019-03-29T21:54:05.070Z,76.90
2019-03-29T21:55:57.490Z,77.30
2019-03-29T21:57:49.676Z,77.00
2019-03-29T21:59:41.776Z,77.20
2019-03-29T22:01:33.908Z,77.20
2019-03-29T22:03:26.149Z,77.20
2019-03-29T22:05:18.275Z,77.50
2019-03-29T22:07:10.404Z,78.10
2019-03-29T22:09:02.813Z,77.30
2019-03-29T22:10:56.743Z,78.10
2019-03-29T22:12:48.868Z,78.40
2019-03-29T22:14:41.282Z,77.80
2019-03-29T22:16:34.507Z,77.00
2019-03-29T22:18:37.328Z,78.70
2019-03-29T22:20:20.012Z,78.60
2019-03-29T22:22:12.195Z,79.20
2019-03-29T22:24:04.196Z,79.40
2019-03-29T22:25:56.663Z,79.40
2019-03-29T22:27:48.683Z,79.60
2019-03-29T22:29:41.171Z,79.90
2019-03-29T22:31:33.072Z,79.80
2019-03-29T22:33:25.115Z,80.20
2019-03-29T22:35:17.044Z,79.80
2019-03-29T22:37:09.205Z,79.60
2019-03-29T22:39:01.099Z,79.20
2019-03-29T22:40:54.627Z,79.50
2019-03-29T22:42:46.735Z,79.40
2019-03-29T22:44:38.831Z,79.50
2019-03-29T22:46:30.997Z,79.70
2019-03-29T22:48:23.421Z,80.00
2019-03-29T22:50:15.669Z,80.10
2019-03-29T22:52:07.726Z,80.40
2019-03-29T22:54:00.269Z,80.90
2019-03-29T22:55:52.583Z,81.20
2019-03-29T22:57:44.512Z,81.20
2019-03-29T22:59:36.630Z,81.30
2019-03-29T23:01:30.401Z,81.20
2019-03-29T23:03:22.620Z,81.40
2019-03-29T23:05:15.025Z,80.30
2019-03-29T23:07:07.058Z,80.60
2019-03-29T23:08:58.907Z,81.40
2019-03-29T23:10:51.178Z,82.00
2019-03-29T23:12:43.147Z,82.90
2019-03-29T23:14:35.571Z,82.50
2019-03-29T23:16:30.400Z,82.90
2019-03-29T23:18:21.387Z,83.10
2019-03-29T23:20:13.511Z,83.40
2019-03-29T23:22:05.614Z,83.10
2019-03-29T23:23:57.928Z,82.90
2019-03-29T23:25:51.450Z,82.40
2019-03-29T23:27:43.648Z,82.30
2019-03-29T23:29:36.034Z,82.60
2019-03-29T23:31:28.366Z,82.80
2019-03-29T23:33:21.055Z,82.80
2019-03-29T23:35:13.749Z,83.50
2019-03-29T23:37:05.974Z,83.50
2019-03-29T23:38:57.840Z,83.30
2019-03-29T23:40:50.053Z,83.60
2019-03-29T23:42:43.006Z,83.50
2019-03-29T23:44:35.415Z,83.40
2019-03-29T23:46:27.700Z,83.60
2019-03-29T23:48:20.100Z,83.90
2019-03-29T23:50:12.536Z,83.90
2019-03-29T23:52:05.173Z,83.60
2019-03-29T23:53:57.570Z,83.70